Auburn Junction, Indiana
Current Conditions -  °F | °C
As of 11:35 PM on Friday 24 Oct 2014 (Local Time) from KGWB Reporting Station
Clear Clear  
Wind Chill: 52°   Ceiling: Unl
Heat Index: 52°   Visibility: 7mi
Dew Point: 48°   Wind: 5mph
Humidity: 88%   Direction: 190°S
Pressure: 29.99"   Gusts: NA
Location:  41.3419°N, 85.0357°W
Report Text: KGWB 250335Z AUTO 19004KT 7SM CLR 11/09 A2999 RMK AO2
Loading
Personal Weather Stations






























Interactive Weather Map New forecast layout! Learn more

10-Day Weather Forecast

Advertisements
Track Severe Weather on mobile